createdAt,value
2022-10-25T00:01:31.564Z,20.30
2022-10-25T00:03:58.635Z,21.15
2022-10-25T00:06:25.556Z,21.20
2022-10-25T00:08:52.683Z,19.67
2022-10-25T00:11:31.118Z,20.13
2022-10-25T00:14:02.249Z,19.58
2022-10-25T00:16:33.894Z,22.00
2022-10-25T00:19:00.860Z,19.20
2022-10-25T00:21:27.768Z,21.85
2022-10-25T00:23:54.713Z,20.65
2022-10-25T00:26:22.081Z,18.50
2022-10-25T00:28:49.107Z,18.08
2022-10-25T00:31:17.838Z,20.17
2022-10-25T00:33:45.528Z,27.40
2022-10-25T00:36:23.782Z,14.68
2022-10-25T00:38:51.393Z,18.50
2022-10-25T00:41:26.494Z,16.58
2022-10-25T00:43:57.104Z,23.08
2022-10-25T00:46:31.648Z,17.33
2022-10-25T00:49:10.969Z,18.25
2022-10-25T00:51:57.737Z,21.40
2022-10-25T00:54:30.846Z,25.10
2022-10-25T00:57:03.101Z,14.15
2022-10-25T00:59:30.272Z,16.98
2022-10-25T01:01:57.572Z,19.05
2022-10-25T01:04:29.054Z,26.67
2022-10-25T01:06:56.747Z,21.77
2022-10-25T01:09:28.581Z,19.25
2022-10-25T01:11:55.975Z,16.25
2022-10-25T01:14:23.838Z,16.60
2022-10-25T01:17:02.770Z,15.30
2022-10-25T01:19:47.614Z,23.60
2022-10-25T01:22:49.481Z,16.80
2022-10-25T01:25:52.137Z,15.50
2022-10-25T01:28:52.218Z,20.05
2022-10-25T01:31:44.074Z,15.95
2022-10-25T01:34:37.204Z,17.40
2022-10-25T01:37:24.980Z,19.73
2022-10-25T01:40:09.715Z,19.70
2022-10-25T01:43:14.734Z,17.17
2022-10-25T01:46:13.750Z,15.38
2022-10-25T01:48:47.897Z,15.48
2022-10-25T01:51:18.187Z,15.00
2022-10-25T01:53:50.676Z,17.27
2022-10-25T01:56:37.119Z,15.43
2022-10-25T01:59:26.468Z,18.58
2022-10-25T02:02:12.903Z,22.90
2022-10-25T02:04:58.765Z,15.55
2022-10-25T02:08:04.571Z,18.20
2022-10-25T02:10:41.840Z,16.60
2022-10-25T02:13:30.883Z,15.48
2022-10-25T02:16:14.939Z,21.42
2022-10-25T02:18:47.987Z,14.65
2022-10-25T02:21:17.158Z,16.65
2022-10-25T02:23:46.963Z,16.35
2022-10-25T02:26:15.909Z,15.65
2022-10-25T02:28:43.325Z,15.90
2022-10-25T02:31:16.884Z,15.18
2022-10-25T02:33:48.454Z,17.60
2022-10-25T02:36:21.129Z,17.20
2022-10-25T02:38:50.354Z,11.13
2022-10-25T02:41:18.891Z,13.55
2022-10-25T02:43:45.894Z,18.75
2022-10-25T02:46:17.964Z,19.40
2022-10-25T02:48:45.846Z,17.27
2022-10-25T02:51:14.244Z,13.00
2022-10-25T02:53:41.433Z,12.80
2022-10-25T02:56:14.327Z,15.70
2022-10-25T02:58:44.080Z,15.63
2022-10-25T03:01:12.910Z,16.10
2022-10-25T03:03:40.597Z,15.43
2022-10-25T03:06:09.045Z,14.07
2022-10-25T03:08:36.466Z,21.08
2022-10-25T03:11:06.114Z,15.63
2022-10-25T03:13:33.079Z,13.52
2022-10-25T03:16:00.464Z,13.32
2022-10-25T03:18:27.393Z,15.20
2022-10-25T03:20:59.637Z,12.10
2022-10-25T03:23:27.484Z,15.85
2022-10-25T03:25:57.406Z,14.32
2022-10-25T03:28:27.432Z,16.23
2022-10-25T03:30:55.819Z,13.77
2022-10-25T03:33:23.694Z,15.27
2022-10-25T03:35:55.191Z,20.33
2022-10-25T03:38:22.645Z,14.95
2022-10-25T03:40:49.654Z,13.98
2022-10-25T03:43:16.747Z,14.63
2022-10-25T03:45:43.733Z,21.95
2022-10-25T03:48:10.852Z,16.35
2022-10-25T03:50:37.904Z,12.90
2022-10-25T03:53:06.102Z,15.10
2022-10-25T03:55:34.303Z,18.23
2022-10-25T03:58:01.366Z,15.25
2022-10-25T04:00:29.082Z,14.93
2022-10-25T04:03:01.811Z,13.65
2022-10-25T04:05:31.167Z,15.00
2022-10-25T04:07:58.703Z,17.27
2022-10-25T04:10:26.172Z,14.23
2022-10-25T04:12:54.619Z,13.30
2022-10-25T04:15:22.871Z,18.52
2022-10-25T04:17:51.439Z,16.50
2022-10-25T04:20:19.701Z,13.82
2022-10-25T04:22:52.440Z,14.20
2022-10-25T04:25:19.358Z,15.70
2022-10-25T04:27:46.475Z,13.32
2022-10-25T04:30:13.878Z,16.50
2022-10-25T04:32:40.841Z,13.38
2022-10-25T04:35:08.472Z,16.70
2022-10-25T04:37:35.394Z,17.50
2022-10-25T04:40:02.338Z,11.82
2022-10-25T04:42:29.271Z,11.68
2022-10-25T04:44:56.181Z,15.30
2022-10-25T04:47:23.130Z,15.90
2022-10-25T04:49:50.051Z,15.48
2022-10-25T04:52:16.984Z,19.08
2022-10-25T04:54:43.987Z,15.38
2022-10-25T04:57:10.886Z,13.93
2022-10-25T04:59:37.752Z,11.75
2022-10-25T05:02:05.577Z,21.80
2022-10-25T05:04:32.491Z,17.70
2022-10-25T05:06:59.385Z,19.08
2022-10-25T05:09:26.304Z,13.77
2022-10-25T05:11:53.206Z,20.88
2022-10-25T05:14:20.150Z,12.55
2022-10-25T05:16:47.102Z,18.52
2022-10-25T05:19:14.092Z,16.95
2022-10-25T05:21:41.016Z,17.42
2022-10-25T05:24:08.098Z,18.42
2022-10-25T05:26:35.290Z,13.43
2022-10-25T05:29:04.467Z,17.13
2022-10-25T05:31:32.603Z,14.93
2022-10-25T05:34:01.214Z,16.92
2022-10-25T05:36:29.513Z,21.45
2022-10-25T05:38:58.188Z,17.80
2022-10-25T05:41:25.158Z,17.70
2022-10-25T05:43:52.119Z,15.93
2022-10-25T05:46:22.520Z,14.77
2022-10-25T05:48:50.923Z,19.52
2022-10-25T05:51:37.595Z,18.02
2022-10-25T05:54:12.276Z,15.13
2022-10-25T05:56:40.947Z,12.95
2022-10-25T05:59:14.493Z,14.48
2022-10-25T06:01:45.068Z,16.52
2022-10-25T06:04:13.408Z,20.38
2022-10-25T06:06:41.904Z,20.30
2022-10-25T06:09:09.701Z,19.83
2022-10-25T06:11:38.343Z,16.35
2022-10-25T06:14:06.516Z,18.98
2022-10-25T06:16:33.832Z,15.52
2022-10-25T06:19:00.886Z,16.80
2022-10-25T06:21:30.212Z,15.32
2022-10-25T06:23:59.245Z,16.52
2022-10-25T06:26:29.175Z,22.45
2022-10-25T06:29:00.209Z,14.85
2022-10-25T06:31:28.471Z,20.60
2022-10-25T06:33:55.622Z,17.27
2022-10-25T06:36:26.824Z,18.98
2022-10-25T06:38:54.580Z,12.77
2022-10-25T06:41:27.722Z,16.70
2022-10-25T06:43:55.635Z,19.98
2022-10-25T06:46:30.243Z,24.73
2022-10-25T06:48:58.062Z,19.77
2022-10-25T06:51:27.777Z,16.50
2022-10-25T06:54:00.799Z,16.33
2022-10-25T06:56:28.971Z,13.90
2022-10-25T06:58:56.309Z,14.75
2022-10-25T07:01:25.367Z,14.57
2022-10-25T07:03:54.237Z,15.30
2022-10-25T07:06:35.570Z,20.05
2022-10-25T07:09:04.987Z,15.77
2022-10-25T07:11:33.298Z,15.88
2022-10-25T07:14:01.710Z,15.32
2022-10-25T07:16:29.243Z,11.25
2022-10-25T07:19:04.440Z,13.07
2022-10-25T07:21:33.142Z,12.90
2022-10-25T07:24:00.544Z,13.32
2022-10-25T07:26:31.603Z,13.73
2022-10-25T07:29:01.026Z,13.52
2022-10-25T07:31:36.715Z,12.13
2022-10-25T07:34:05.466Z,12.70
2022-10-25T07:36:33.118Z,19.35
2022-10-25T07:39:00.832Z,10.48
2022-10-25T07:41:27.804Z,11.75
2022-10-25T07:43:55.494Z,18.08
2022-10-25T07:46:23.384Z,12.02
2022-10-25T07:48:52.464Z,10.88
2022-10-25T07:51:20.084Z,14.30
2022-10-25T07:53:47.532Z,10.93
2022-10-25T07:56:22.488Z,10.63
2022-10-25T07:58:52.473Z,11.82
2022-10-25T08:01:26.007Z,12.93
2022-10-25T08:03:54.304Z,14.07
2022-10-25T08:06:25.663Z,11.02
2022-10-25T08:08:53.328Z,11.25
2022-10-25T08:11:20.477Z,12.43
2022-10-25T08:13:50.370Z,13.43
2022-10-25T08:16:17.404Z,8.43
2022-10-25T08:18:44.543Z,15.73
2022-10-25T08:21:11.642Z,15.90
2022-10-25T08:23:38.667Z,12.63
2022-10-25T08:26:05.758Z,14.32
2022-10-25T08:28:32.722Z,18.30
2022-10-25T08:31:01.354Z,14.70
2022-10-25T08:33:29.409Z,14.35
2022-10-25T08:35:59.101Z,11.32
2022-10-25T08:38:26.039Z,12.82
2022-10-25T08:41:21.399Z,15.13
2022-10-25T08:44:08.806Z,11.23
2022-10-25T08:47:02.490Z,13.18
2022-10-25T08:50:20.398Z,15.85
2022-10-25T08:53:03.033Z,18.40
2022-10-25T08:55:41.741Z,17.00
2022-10-25T08:58:22.930Z,15.02
2022-10-25T09:00:50.134Z,16.10
2022-10-25T09:03:25.753Z,13.50
2022-10-25T09:06:23.301Z,12.07
2022-10-25T09:09:10.272Z,11.80
2022-10-25T09:12:15.839Z,10.98
2022-10-25T09:15:16.644Z,17.02
2022-10-25T09:17:53.115Z,14.95
2022-10-25T09:20:30.906Z,15.20
2022-10-25T09:23:11.980Z,13.38
2022-10-25T09:25:56.642Z,15.13
2022-10-25T09:28:46.940Z,18.90
2022-10-25T09:31:20.082Z,15.25
2022-10-25T09:33:48.987Z,10.48
2022-10-25T09:36:15.933Z,15.65
2022-10-25T09:38:50.589Z,10.63
2022-10-25T09:41:29.402Z,13.32
2022-10-25T09:44:09.521Z,15.55
2022-10-25T09:46:48.011Z,17.90
2022-10-25T09:49:38.268Z,17.15
2022-10-25T09:52:26.380Z,9.85
2022-10-25T09:55:02.395Z,13.70
2022-10-25T09:57:29.481Z,11.70
2022-10-25T09:59:56.431Z,16.35
2022-10-25T10:02:25.938Z,14.30
2022-10-25T10:04:54.351Z,20.17
2022-10-25T10:07:29.159Z,10.35
2022-10-25T10:10:00.334Z,14.85
2022-10-25T10:13:08.254Z,15.07
2022-10-25T10:15:50.153Z,14.02
2022-10-25T10:18:27.694Z,13.15
2022-10-25T10:21:06.077Z,16.23
2022-10-25T10:23:44.009Z,13.18
2022-10-25T10:26:54.347Z,13.82
2022-10-25T10:29:27.285Z,16.85
2022-10-25T10:32:00.444Z,15.20
2022-10-25T10:34:51.350Z,13.55
2022-10-25T10:37:26.207Z,13.93
2022-10-25T10:39:58.136Z,16.20
2022-10-25T10:42:34.889Z,14.25
2022-10-25T10:45:07.995Z,21.58
2022-10-25T10:47:59.645Z,21.27
2022-10-25T10:50:32.593Z,17.63
2022-10-25T10:53:04.090Z,12.27
2022-10-25T10:55:53.703Z,15.15
2022-10-25T10:58:28.208Z,12.52
2022-10-25T11:01:05.645Z,14.15
2022-10-25T11:03:53.448Z,17.88
2022-10-25T11:06:35.346Z,27.60
2022-10-25T11:09:19.374Z,14.25
2022-10-25T11:12:11.064Z,17.10
2022-10-25T11:14:38.306Z,14.23
2022-10-25T11:17:31.098Z,12.75
2022-10-25T11:20:39.170Z,12.13
2022-10-25T11:23:14.898Z,13.30
2022-10-25T11:25:57.922Z,8.52
2022-10-25T11:29:04.811Z,15.60
2022-10-25T11:32:13.044Z,13.77
2022-10-25T11:35:06.361Z,9.73
2022-10-25T11:37:48.979Z,14.95
2022-10-25T11:40:20.996Z,15.65
2022-10-25T11:43:24.457Z,12.93
2022-10-25T11:46:27.530Z,11.52
2022-10-25T11:49:27.273Z,10.82
2022-10-25T11:52:22.374Z,8.93
2022-10-25T11:55:17.785Z,14.77
2022-10-25T11:58:21.671Z,18.60
2022-10-25T12:01:09.734Z,13.77
2022-10-25T12:03:58.739Z,15.20
2022-10-25T12:06:48.438Z,10.13
2022-10-25T12:09:29.965Z,10.60
2022-10-25T12:12:10.591Z,15.20
2022-10-25T12:14:43.812Z,14.80
2022-10-25T12:17:35.223Z,14.30
2022-10-25T12:20:07.429Z,12.15
2022-10-25T12:22:43.077Z,15.32
2022-10-25T12:25:33.864Z,16.65
2022-10-25T12:28:29.349Z,13.57
2022-10-25T12:31:08.442Z,11.43
2022-10-25T12:33:41.749Z,16.73
2022-10-25T12:36:32.677Z,10.73
2022-10-25T12:39:02.224Z,11.60
2022-10-25T12:41:37.074Z,18.77
2022-10-25T12:44:29.639Z,10.27
2022-10-25T12:47:25.760Z,14.75
2022-10-25T12:50:34.598Z,15.13
2022-10-25T12:53:27.865Z,16.80
2022-10-25T12:56:51.257Z,16.00
2022-10-25T12:59:54.926Z,15.32
2022-10-25T13:03:08.429Z,11.75
2022-10-25T13:06:19.541Z,13.70
2022-10-25T13:08:47.543Z,8.35
2022-10-25T13:11:14.682Z,14.75
2022-10-25T13:13:54.202Z,11.93
2022-10-25T13:16:28.997Z,13.35
2022-10-25T13:19:36.248Z,11.20
2022-10-25T13:22:13.754Z,12.95
2022-10-25T13:24:45.196Z,12.65
2022-10-25T13:27:15.187Z,13.10
2022-10-25T13:30:01.891Z,13.77
2022-10-25T13:32:32.190Z,14.80
2022-10-25T13:34:59.277Z,13.50
2022-10-25T13:37:32.099Z,12.48
2022-10-25T13:40:04.431Z,9.77
2022-10-25T13:42:39.379Z,11.73
2022-10-25T13:45:08.484Z,12.52
2022-10-25T13:47:46.038Z,15.13
2022-10-25T13:50:35.559Z,14.63
2022-10-25T13:53:20.038Z,8.93
2022-10-25T13:55:58.602Z,10.90
2022-10-25T13:58:31.530Z,12.48
2022-10-25T14:01:18.878Z,10.98
2022-10-25T14:04:22.393Z,11.07
2022-10-25T14:06:49.655Z,11.85
2022-10-25T14:09:22.260Z,12.27
2022-10-25T14:11:52.837Z,11.20
2022-10-25T14:14:47.583Z,11.55
2022-10-25T14:17:33.785Z,15.40
2022-10-25T14:20:34.955Z,19.25
2022-10-25T14:23:08.208Z,27.52
2022-10-25T14:25:41.991Z,23.35
2022-10-25T14:28:30.822Z,33.17
2022-10-25T14:31:08.381Z,22.42
2022-10-25T14:33:49.526Z,32.35
2022-10-25T14:36:38.098Z,25.67
2022-10-25T14:39:16.288Z,21.65
2022-10-25T14:41:55.516Z,30.33
2022-10-25T14:44:30.675Z,21.45
2022-10-25T14:47:00.078Z,23.83
2022-10-25T14:49:27.998Z,32.15
2022-10-25T14:52:00.498Z,40.30
2022-10-25T14:54:34.559Z,44.72
2022-10-25T14:57:06.523Z,20.38
2022-10-25T14:59:43.363Z,22.73
2022-10-25T15:02:24.523Z,19.00
2022-10-25T15:04:54.681Z,24.55
2022-10-25T15:07:31.330Z,19.30
2022-10-25T15:10:01.295Z,16.30
2022-10-25T15:12:31.550Z,18.85
2022-10-25T15:15:26.028Z,38.92
2022-10-25T15:17:54.500Z,30.83
2022-10-25T15:20:21.300Z,50.63
2022-10-25T15:22:50.632Z,44.15
2022-10-25T15:25:23.679Z,54.00
2022-10-25T15:27:54.636Z,42.22
2022-10-25T15:30:37.691Z,32.88
2022-10-25T15:33:13.089Z,38.05
2022-10-25T15:35:57.919Z,40.05
2022-10-25T15:38:47.836Z,23.40
2022-10-25T15:41:18.070Z,21.20
2022-10-25T15:43:45.061Z,20.02
2022-10-25T15:46:25.190Z,16.67
2022-10-25T15:48:53.112Z,14.07
2022-10-25T15:51:20.531Z,18.23
2022-10-25T15:53:47.452Z,23.17
2022-10-25T15:56:18.627Z,24.27
2022-10-25T15:58:45.610Z,21.55
2022-10-25T16:01:13.163Z,15.30
2022-10-25T16:03:40.581Z,16.50
2022-10-25T16:06:11.292Z,11.10
2022-10-25T16:08:38.248Z,19.45
2022-10-25T16:11:05.484Z,9.13
2022-10-25T16:13:37.873Z,8.90
2022-10-25T16:16:21.952Z,10.05
2022-10-25T16:18:54.511Z,10.73
2022-10-25T16:21:22.188Z,15.60
2022-10-25T16:23:49.787Z,7.47
2022-10-25T16:26:46.779Z,10.50
2022-10-25T16:29:24.343Z,10.80
2022-10-25T16:31:52.844Z,9.50
2022-10-25T16:34:19.940Z,8.10
2022-10-25T16:36:48.590Z,11.05
2022-10-25T16:39:16.022Z,8.15
2022-10-25T16:41:45.785Z,6.05
2022-10-25T16:44:16.682Z,16.35
2022-10-25T16:46:44.625Z,17.17
2022-10-25T16:49:12.062Z,14.20
2022-10-25T16:51:40.414Z,8.80
2022-10-25T16:54:07.847Z,8.15
2022-10-25T16:56:35.750Z,9.77
2022-10-25T16:59:02.882Z,10.57
2022-10-25T17:01:34.334Z,10.70
2022-10-25T17:04:06.174Z,6.47
2022-10-25T17:06:41.287Z,13.52
2022-10-25T17:09:09.086Z,9.02
2022-10-25T17:11:36.485Z,12.18
2022-10-25T17:14:04.388Z,8.60
2022-10-25T17:16:31.408Z,12.07
2022-10-25T17:18:58.353Z,8.48
2022-10-25T17:21:25.281Z,8.15
2022-10-25T17:23:52.192Z,7.75
2022-10-25T17:26:19.330Z,10.32
2022-10-25T17:28:46.295Z,8.98
2022-10-25T17:31:14.617Z,9.30
2022-10-25T17:33:42.461Z,15.73
2022-10-25T17:36:19.887Z,7.88
2022-10-25T17:38:47.157Z,10.35
2022-10-25T17:41:14.717Z,8.88
2022-10-25T17:43:42.100Z,15.18
2022-10-25T17:46:18.019Z,8.50
2022-10-25T17:48:45.732Z,13.85
2022-10-25T17:51:15.847Z,10.65
2022-10-25T17:53:42.818Z,14.95
2022-10-25T17:56:19.239Z,12.55
2022-10-25T17:58:48.264Z,13.93
2022-10-25T18:01:35.194Z,18.02
2022-10-25T18:04:02.323Z,17.00
2022-10-25T18:06:30.891Z,15.32
2022-10-25T18:09:00.025Z,12.13
2022-10-25T18:11:28.367Z,13.93
2022-10-25T18:13:58.393Z,12.45
2022-10-25T18:16:27.406Z,13.95
2022-10-25T18:18:57.883Z,15.27
2022-10-25T18:21:25.571Z,11.65
2022-10-25T18:23:57.504Z,12.82
2022-10-25T18:26:25.382Z,13.32
2022-10-25T18:28:52.783Z,16.75
2022-10-25T18:31:21.054Z,12.60
2022-10-25T18:33:48.251Z,15.57
2022-10-25T18:36:19.345Z,15.98
2022-10-25T18:38:48.550Z,17.77
2022-10-25T18:41:19.465Z,16.63
2022-10-25T18:43:46.757Z,15.85
2022-10-25T18:46:14.494Z,18.38
2022-10-25T18:48:42.169Z,17.00
2022-10-25T18:51:13.742Z,17.55
2022-10-25T18:53:40.872Z,16.73
2022-10-25T18:56:15.851Z,13.27
2022-10-25T18:58:45.767Z,14.48
2022-10-25T19:01:17.036Z,15.27
2022-10-25T19:03:44.490Z,21.73
2022-10-25T19:06:11.504Z,15.88
2022-10-25T19:08:39.338Z,11.93
2022-10-25T19:11:09.311Z,16.90
2022-10-25T19:13:36.453Z,14.52
2022-10-25T19:16:04.309Z,18.42
2022-10-25T19:18:33.570Z,15.05
2022-10-25T19:21:16.749Z,17.77
2022-10-25T19:23:46.179Z,18.15
2022-10-25T19:26:19.827Z,23.92
2022-10-25T19:28:54.332Z,17.73
2022-10-25T19:31:21.287Z,20.38
2022-10-25T19:33:50.581Z,21.17
2022-10-25T19:36:18.479Z,20.70
2022-10-25T19:38:48.227Z,18.55
2022-10-25T19:41:19.711Z,17.67
2022-10-25T19:43:47.532Z,19.60
2022-10-25T19:46:15.392Z,19.15
2022-10-25T19:48:42.490Z,23.08
2022-10-25T19:51:16.006Z,21.17
2022-10-25T19:53:44.095Z,18.75
2022-10-25T19:56:17.866Z,20.75
2022-10-25T19:58:45.622Z,17.88
2022-10-25T20:01:19.567Z,20.92
2022-10-25T20:03:51.342Z,20.52
2022-10-25T20:06:24.609Z,21.08
2022-10-25T20:08:53.195Z,20.35
2022-10-25T20:11:20.348Z,18.70
2022-10-25T20:13:47.661Z,20.90
2022-10-25T20:16:14.934Z,17.85
2022-10-25T20:18:42.830Z,19.63
2022-10-25T20:21:16.664Z,21.13
2022-10-25T20:23:49.393Z,19.33
2022-10-25T20:26:23.105Z,20.58
2022-10-25T20:28:53.403Z,18.48
2022-10-25T20:31:22.977Z,18.50
2022-10-25T20:33:50.516Z,19.55
2022-10-25T20:36:17.497Z,21.40
2022-10-25T20:38:45.468Z,16.20
2022-10-25T20:41:18.184Z,18.52
2022-10-25T20:43:51.321Z,19.67
2022-10-25T20:46:19.412Z,22.75
2022-10-25T20:48:46.603Z,14.82
2022-10-25T20:51:15.614Z,22.50
2022-10-25T20:53:44.429Z,18.80
2022-10-25T20:56:12.784Z,19.40
2022-10-25T20:58:40.685Z,19.85
2022-10-25T21:01:08.167Z,15.05
2022-10-25T21:03:35.188Z,20.27
2022-10-25T21:06:05.293Z,17.15
2022-10-25T21:08:33.336Z,19.25
2022-10-25T21:11:04.455Z,19.48
2022-10-25T21:13:34.545Z,17.33
2022-10-25T21:16:13.689Z,18.75
2022-10-25T21:18:42.255Z,17.77
2022-10-25T21:21:18.234Z,18.90
2022-10-25T21:23:47.050Z,18.08
2022-10-25T21:26:14.020Z,19.05
2022-10-25T21:28:41.873Z,17.90
2022-10-25T21:31:13.379Z,24.67
2022-10-25T21:33:49.727Z,18.52
2022-10-25T21:36:18.933Z,18.38
2022-10-25T21:38:45.877Z,20.27
2022-10-25T21:41:16.844Z,20.58
2022-10-25T21:43:47.795Z,21.10
2022-10-25T21:46:16.768Z,18.27
2022-10-25T21:48:44.014Z,24.77
2022-10-25T21:51:11.032Z,20.17
2022-10-25T21:53:38.103Z,19.58
2022-10-25T21:56:13.230Z,20.25
2022-10-25T21:58:42.855Z,21.23
2022-10-25T22:01:15.539Z,22.38
2022-10-25T22:03:43.239Z,19.75
2022-10-25T22:06:13.408Z,20.23
2022-10-25T22:08:40.736Z,21.33
2022-10-25T22:11:19.095Z,20.02
2022-10-25T22:13:47.528Z,16.40
2022-10-25T22:16:18.100Z,21.10
2022-10-25T22:18:57.608Z,19.77
2022-10-25T22:21:29.049Z,20.15
2022-10-25T22:23:56.035Z,18.92
2022-10-25T22:26:23.752Z,17.13
2022-10-25T22:28:59.304Z,18.48
2022-10-25T22:31:29.214Z,21.83
2022-10-25T22:34:03.509Z,19.70
2022-10-25T22:36:36.329Z,16.83
2022-10-25T22:39:04.231Z,22.25
2022-10-25T22:41:31.891Z,20.08
2022-10-25T22:44:00.127Z,22.50
2022-10-25T22:46:33.336Z,23.52
2022-10-25T22:49:05.611Z,18.58
2022-10-25T22:51:32.911Z,20.20
2022-10-25T22:53:59.941Z,16.40
2022-10-25T22:56:29.966Z,18.15
2022-10-25T22:58:59.979Z,17.00
2022-10-25T23:01:30.869Z,15.48
2022-10-25T23:03:59.240Z,18.05
2022-10-25T23:06:34.811Z,18.35
2022-10-25T23:09:05.488Z,17.17
2022-10-25T23:11:35.388Z,17.58
2022-10-25T23:14:03.309Z,19.27
2022-10-25T23:16:30.702Z,17.88
2022-10-25T23:18:57.851Z,16.13
2022-10-25T23:21:32.064Z,18.10
2022-10-25T23:23:59.987Z,18.83
2022-10-25T23:26:33.798Z,16.95
2022-10-25T23:29:01.574Z,15.93
2022-10-25T23:31:29.794Z,16.58
2022-10-25T23:33:59.687Z,20.23
2022-10-25T23:36:29.677Z,21.83
2022-10-25T23:38:58.024Z,17.33
2022-10-25T23:41:25.059Z,13.20
2022-10-25T23:43:52.069Z,18.55
2022-10-25T23:46:19.556Z,18.85
2022-10-25T23:48:46.818Z,18.50
2022-10-25T23:51:17.461Z,14.65
2022-10-25T23:53:45.620Z,18.92
2022-10-25T23:56:14.275Z,15.52
2022-10-25T23:58:41.609Z,16.60
